createdAt,value
2022-10-18T00:01:16.306Z,13.93
2022-10-18T00:03:44.831Z,13.91
2022-10-18T00:06:13.657Z,13.92
2022-10-18T00:08:41.801Z,13.95
2022-10-18T00:11:10.110Z,13.95
2022-10-18T00:13:39.795Z,13.94
2022-10-18T00:16:13.576Z,13.93
2022-10-18T00:18:42.925Z,13.91
2022-10-18T00:21:13.987Z,13.95
2022-10-18T00:23:42.449Z,14.01
2022-10-18T00:26:13.725Z,13.98
2022-10-18T00:28:44.469Z,14.00
2022-10-18T00:31:15.282Z,14.02
2022-10-18T00:33:44.869Z,14.04
2022-10-18T00:36:14.796Z,14.02
2022-10-18T00:38:43.608Z,14.07
2022-10-18T00:41:14.556Z,14.09
2022-10-18T00:43:59.949Z,14.03
2022-10-18T00:46:31.146Z,14.07
2022-10-18T00:49:02.382Z,14.08
2022-10-18T00:51:45.501Z,14.02
2022-10-18T00:54:14.800Z,13.89
2022-10-18T00:56:44.887Z,13.95
2022-10-18T00:59:16.734Z,13.99
2022-10-18T01:01:45.013Z,13.97
2022-10-18T01:04:13.589Z,13.99
2022-10-18T01:06:52.052Z,13.98
2022-10-18T01:09:29.857Z,13.90
2022-10-18T01:12:11.295Z,13.93
2022-10-18T01:14:49.290Z,13.95
2022-10-18T01:17:22.847Z,13.94
2022-10-18T01:20:09.965Z,13.94
2022-10-18T01:22:43.485Z,13.94
2022-10-18T01:25:25.110Z,13.89
2022-10-18T01:28:00.271Z,13.88
2022-10-18T01:30:41.500Z,13.92
2022-10-18T01:33:27.034Z,13.92
2022-10-18T01:36:00.496Z,13.90
2022-10-18T01:38:33.688Z,13.86
2022-10-18T01:41:05.008Z,13.85
2022-10-18T01:43:35.654Z,13.84
2022-10-18T01:46:06.870Z,13.81
2022-10-18T01:48:38.711Z,13.81
2022-10-18T01:51:07.544Z,13.84
2022-10-18T01:53:36.488Z,13.75
2022-10-18T01:56:22.768Z,13.80
2022-10-18T01:59:18.709Z,13.81
2022-10-18T02:02:01.400Z,13.83
2022-10-18T02:04:35.328Z,13.89
2022-10-18T02:07:11.111Z,13.77
2022-10-18T02:09:46.217Z,13.78
2022-10-18T02:12:16.472Z,13.84
2022-10-18T02:14:47.058Z,13.76
2022-10-18T02:17:18.754Z,13.74
2022-10-18T02:19:52.191Z,13.77
2022-10-18T02:22:21.983Z,13.84
2022-10-18T02:24:54.300Z,13.79
2022-10-18T02:27:23.035Z,13.89
2022-10-18T02:29:51.705Z,13.88
2022-10-18T02:32:30.367Z,13.92
2022-10-18T02:35:02.559Z,13.89
2022-10-18T02:37:35.553Z,13.82
2022-10-18T02:40:06.337Z,13.87
2022-10-18T02:42:37.050Z,13.88
2022-10-18T02:45:07.142Z,13.84
2022-10-18T02:47:36.649Z,13.89
2022-10-18T02:50:05.734Z,13.88
2022-10-18T02:52:34.435Z,13.89
2022-10-18T02:55:02.721Z,13.84
2022-10-18T02:57:31.208Z,13.88
2022-10-18T02:59:59.825Z,13.82
2022-10-18T03:02:28.166Z,13.86
2022-10-18T03:04:57.765Z,13.81
2022-10-18T03:07:26.438Z,13.89
2022-10-18T03:09:54.880Z,13.83
2022-10-18T03:12:23.247Z,13.86
2022-10-18T03:14:51.551Z,13.87
2022-10-18T03:17:19.843Z,13.88
2022-10-18T03:19:48.073Z,13.84
2022-10-18T03:22:18.047Z,13.84
2022-10-18T03:24:46.724Z,13.88
2022-10-18T03:27:14.934Z,13.89
2022-10-18T03:29:43.447Z,13.86
2022-10-18T03:32:11.968Z,13.85
2022-10-18T03:34:40.294Z,13.90
2022-10-18T03:37:08.781Z,13.94
2022-10-18T03:39:38.831Z,13.93
2022-10-18T03:42:07.117Z,13.97
2022-10-18T03:44:35.514Z,13.96
2022-10-18T03:47:04.413Z,13.96
2022-10-18T03:52:02.397Z,13.85
2022-10-18T03:54:30.869Z,13.85
2022-10-18T03:57:00.635Z,13.80
2022-10-18T03:59:31.851Z,13.92
2022-10-18T04:02:00.262Z,13.76
2022-10-18T04:04:28.688Z,13.85
2022-10-18T04:06:57.023Z,13.86
2022-10-18T04:09:25.700Z,13.82
2022-10-18T04:11:54.687Z,13.87
2022-10-18T04:14:24.604Z,13.77
2022-10-18T04:16:52.788Z,13.77
2022-10-18T04:19:21.103Z,13.90
2022-10-18T04:21:49.429Z,13.89
2022-10-18T04:24:18.644Z,13.86
2022-10-18T04:26:47.128Z,13.97
2022-10-18T04:29:15.304Z,13.98
2022-10-18T04:31:45.286Z,13.91
2022-10-18T04:34:13.490Z,13.85
2022-10-18T04:36:41.695Z,13.90
2022-10-18T04:39:10.060Z,13.89
2022-10-18T04:41:38.118Z,13.93
2022-10-18T04:44:07.133Z,13.94
2022-10-18T04:46:35.826Z,13.95
2022-10-18T04:49:05.380Z,13.94
2022-10-18T04:51:33.775Z,13.95
2022-10-18T04:54:02.275Z,13.95
2022-10-18T04:56:30.403Z,13.99
2022-10-18T04:58:59.859Z,14.01
2022-10-18T05:01:28.417Z,14.01
2022-10-18T05:03:56.721Z,14.01
2022-10-18T05:06:26.588Z,13.97
2022-10-18T05:08:55.824Z,13.91
2022-10-18T05:11:24.312Z,13.92
2022-10-18T05:13:52.952Z,13.96
2022-10-18T05:16:21.362Z,13.97
2022-10-18T05:18:49.617Z,14.00
2022-10-18T05:21:18.406Z,13.96
2022-10-18T05:23:48.091Z,13.90
2022-10-18T05:26:16.585Z,13.96
2022-10-18T05:28:44.923Z,13.91
2022-10-18T05:31:13.959Z,13.91
2022-10-18T05:33:42.181Z,13.95
2022-10-18T05:36:10.996Z,13.97
2022-10-18T05:38:43.229Z,13.97
2022-10-18T05:41:13.813Z,13.92
2022-10-18T05:43:42.358Z,13.92
2022-10-18T05:46:15.098Z,13.94
2022-10-18T05:48:44.908Z,13.94
2022-10-18T05:51:13.910Z,13.81
2022-10-18T05:53:42.121Z,13.94
2022-10-18T05:56:11.979Z,13.88
2022-10-18T05:58:42.161Z,13.85
2022-10-18T06:01:11.418Z,13.84
2022-10-18T06:03:39.760Z,13.85
2022-10-18T06:06:10.161Z,13.83
2022-10-18T06:08:39.863Z,13.84
2022-10-18T06:11:08.912Z,13.80
2022-10-18T06:13:43.357Z,13.78
2022-10-18T06:16:15.414Z,13.75
2022-10-18T06:18:44.131Z,13.84
2022-10-18T06:21:12.586Z,13.86
2022-10-18T06:23:40.920Z,13.83
2022-10-18T06:26:11.415Z,13.81
2022-10-18T06:28:39.905Z,13.77
2022-10-18T06:31:09.713Z,13.77
2022-10-18T06:33:38.282Z,13.79
2022-10-18T06:36:08.791Z,13.83
2022-10-18T06:38:37.085Z,13.79
2022-10-18T06:41:06.426Z,13.85
2022-10-18T06:43:34.661Z,13.88
2022-10-18T06:46:05.100Z,13.88
2022-10-18T06:48:37.094Z,13.88
2022-10-18T06:51:07.412Z,13.88
2022-10-18T06:53:43.902Z,13.83
2022-10-18T06:56:17.882Z,13.81
2022-10-18T06:58:46.375Z,13.86
2022-10-18T07:01:16.364Z,13.88
2022-10-18T07:03:47.450Z,13.89
2022-10-18T07:06:19.350Z,13.90
2022-10-18T07:08:48.715Z,13.93
2022-10-18T07:11:19.080Z,13.97
2022-10-18T07:13:47.659Z,13.94
2022-10-18T07:16:18.674Z,13.91
2022-10-18T07:18:50.714Z,13.88
2022-10-18T07:21:20.868Z,13.89
2022-10-18T07:23:49.901Z,13.96
2022-10-18T07:26:19.856Z,13.91
2022-10-18T07:28:51.318Z,13.87
2022-10-18T07:31:19.784Z,13.89
2022-10-18T07:33:49.230Z,13.90
2022-10-18T07:36:18.186Z,13.96
2022-10-18T07:38:46.421Z,13.92
2022-10-18T07:41:15.645Z,13.92
2022-10-18T07:43:44.690Z,13.87
2022-10-18T07:46:14.109Z,13.79
2022-10-18T07:48:42.593Z,13.79
2022-10-18T07:51:12.839Z,13.77
2022-10-18T07:53:41.538Z,13.86
2022-10-18T07:56:16.427Z,13.89
2022-10-18T07:58:45.567Z,13.90
2022-10-18T08:01:14.509Z,13.91
2022-10-18T08:03:43.967Z,13.94
2022-10-18T08:06:16.492Z,13.96
2022-10-18T08:08:45.570Z,13.99
2022-10-18T08:11:16.081Z,14.00
2022-10-18T08:13:44.633Z,14.05
2022-10-18T08:16:15.475Z,14.10
2022-10-18T08:18:43.919Z,14.08
2022-10-18T08:21:14.995Z,14.15
2022-10-18T08:23:44.309Z,13.99
2022-10-18T08:26:14.488Z,13.92
2022-10-18T08:28:49.057Z,13.88
2022-10-18T08:31:22.931Z,13.83
2022-10-18T08:33:51.127Z,13.72
2022-10-18T08:36:20.803Z,13.69
2022-10-18T08:38:49.767Z,13.69
2022-10-18T08:41:45.553Z,13.58
2022-10-18T08:44:19.542Z,13.62
2022-10-18T08:46:49.866Z,13.60
2022-10-18T08:49:28.797Z,13.67
2022-10-18T08:52:00.968Z,13.69
2022-10-18T08:54:35.090Z,13.78
2022-10-18T08:57:08.139Z,13.86
2022-10-18T08:59:41.370Z,13.86
2022-10-18T09:02:22.234Z,13.89
2022-10-18T09:04:57.524Z,13.91
2022-10-18T09:07:53.142Z,13.89
2022-10-18T09:10:31.833Z,13.98
2022-10-18T09:13:16.746Z,13.99
2022-10-18T09:15:51.308Z,13.98
2022-10-18T09:18:31.979Z,13.90
2022-10-18T09:21:02.543Z,13.90
2022-10-18T09:23:44.234Z,13.92
2022-10-18T09:26:18.407Z,13.89
2022-10-18T09:29:00.305Z,13.88
2022-10-18T09:31:42.114Z,13.75
2022-10-18T09:34:16.151Z,13.95
2022-10-18T09:36:46.758Z,13.97
2022-10-18T09:39:20.310Z,13.97
2022-10-18T09:41:52.638Z,13.96
2022-10-18T09:44:26.570Z,13.94
2022-10-18T09:47:00.454Z,13.86
2022-10-18T09:49:32.539Z,13.88
2022-10-18T09:52:04.169Z,13.95
2022-10-18T09:54:41.500Z,14.00
2022-10-18T09:57:14.722Z,14.15
2022-10-18T09:59:44.392Z,14.18
2022-10-18T10:02:16.423Z,14.23
2022-10-18T10:04:44.827Z,14.14
2022-10-18T10:07:15.932Z,14.05
2022-10-18T10:09:48.915Z,14.02
2022-10-18T10:12:32.806Z,13.96
2022-10-18T10:15:18.079Z,13.97
2022-10-18T10:17:55.378Z,14.01
2022-10-18T10:20:26.047Z,14.04
2022-10-18T10:22:54.974Z,14.16
2022-10-18T10:25:32.264Z,14.09
2022-10-18T10:28:04.961Z,14.07
2022-10-18T10:30:36.083Z,14.11
2022-10-18T10:33:05.738Z,13.98
2022-10-18T10:35:53.889Z,14.05
2022-10-18T10:38:27.007Z,14.13
2022-10-18T10:40:57.183Z,14.17
2022-10-18T10:43:44.308Z,14.19
2022-10-18T10:46:15.162Z,14.24
2022-10-18T10:48:59.533Z,14.26
2022-10-18T10:51:34.488Z,14.27
2022-10-18T10:54:04.649Z,14.23
2022-10-18T10:56:37.251Z,14.32
2022-10-18T10:59:14.761Z,14.32
2022-10-18T11:01:43.897Z,14.42
2022-10-18T11:04:28.104Z,14.34
2022-10-18T11:07:05.942Z,14.29
2022-10-18T11:09:55.768Z,14.26
2022-10-18T11:12:34.738Z,14.29
2022-10-18T11:15:20.317Z,14.37
2022-10-18T11:18:01.784Z,14.27
2022-10-18T11:20:36.517Z,14.17
2022-10-18T11:23:08.655Z,14.17
2022-10-18T11:26:09.971Z,14.11
2022-10-18T11:29:02.189Z,14.11
2022-10-18T11:31:37.074Z,14.13
2022-10-18T11:34:19.044Z,14.02
2022-10-18T11:37:09.135Z,14.02
2022-10-18T11:39:56.633Z,14.08
2022-10-18T11:42:39.057Z,14.14
2022-10-18T11:45:26.180Z,14.24
2022-10-18T11:48:00.832Z,14.24
2022-10-18T11:50:37.207Z,14.11
2022-10-18T11:53:14.891Z,14.23
2022-10-18T11:55:55.624Z,14.09
2022-10-18T11:58:48.040Z,14.22
2022-10-18T12:01:28.811Z,14.34
2022-10-18T12:04:04.230Z,14.40
2022-10-18T12:06:36.286Z,14.43
2022-10-18T12:09:14.783Z,14.40
2022-10-18T12:11:50.226Z,14.40
2022-10-18T12:14:30.758Z,14.30
2022-10-18T12:17:39.279Z,14.23
2022-10-18T12:19:56.802Z,14.05
2022-10-18T12:22:30.354Z,14.05
2022-10-18T12:24:58.682Z,14.14
2022-10-18T12:27:35.651Z,14.01
2022-10-18T12:30:10.502Z,14.05
2022-10-18T12:32:56.399Z,14.08
2022-10-18T12:35:38.511Z,14.07
2022-10-18T12:38:19.349Z,14.09
2022-10-18T12:40:50.640Z,14.11
2022-10-18T12:43:24.450Z,13.97
2022-10-18T12:45:56.318Z,14.04
2022-10-18T12:48:32.822Z,14.00
2022-10-18T12:51:07.476Z,13.97
2022-10-18T12:53:36.392Z,13.96
2022-10-18T12:56:50.979Z,14.11
2022-10-18T12:59:52.266Z,14.13
2022-10-18T13:02:35.116Z,14.21
2022-10-18T13:05:52.819Z,14.11
2022-10-18T13:08:42.784Z,13.97
2022-10-18T13:11:30.426Z,13.69
2022-10-18T13:14:18.517Z,13.52
2022-10-18T13:16:53.144Z,13.46
2022-10-18T13:19:32.805Z,13.48
2022-10-18T13:22:19.303Z,13.43
2022-10-18T13:25:02.284Z,13.37
2022-10-18T13:27:41.196Z,13.14
2022-10-18T13:30:40.083Z,13.14
2022-10-18T13:33:27.860Z,13.29
2022-10-18T13:35:58.123Z,13.27
2022-10-18T13:38:50.761Z,13.23
2022-10-18T13:41:21.329Z,13.21
2022-10-18T13:44:10.910Z,13.14
2022-10-18T13:47:18.520Z,13.08
2022-10-18T13:50:29.359Z,13.13
2022-10-18T13:53:35.580Z,12.97
2022-10-18T13:56:32.606Z,12.92
2022-10-18T14:02:51.722Z,12.96
2022-10-18T14:05:39.022Z,13.04
2022-10-18T14:08:21.313Z,13.03
2022-10-18T14:11:03.535Z,13.04
2022-10-18T14:13:41.094Z,13.02
2022-10-18T14:16:24.758Z,12.96
2022-10-18T14:18:59.859Z,13.08
2022-10-18T14:21:36.406Z,13.06
2022-10-18T14:24:11.577Z,13.06
2022-10-18T14:29:20.629Z,13.10
2022-10-18T14:31:55.180Z,13.06
2022-10-18T14:34:23.751Z,13.17
2022-10-18T14:36:52.737Z,13.18
2022-10-18T14:39:23.482Z,13.13
2022-10-18T14:41:53.366Z,13.23
2022-10-18T14:44:27.939Z,13.31
2022-10-18T14:47:02.224Z,13.23
2022-10-18T14:49:31.691Z,13.05
2022-10-18T14:52:01.530Z,13.07
2022-10-18T14:54:34.494Z,12.98
2022-10-18T14:57:03.482Z,13.12
2022-10-18T14:59:38.651Z,13.11
2022-10-18T15:02:15.931Z,13.21
2022-10-18T15:04:46.644Z,12.89
2022-10-18T15:07:17.607Z,12.88
2022-10-18T15:09:47.007Z,12.91
2022-10-18T15:12:16.688Z,12.97
2022-10-18T15:14:48.120Z,12.91
2022-10-18T15:17:21.832Z,12.85
2022-10-18T15:20:01.801Z,12.75
2022-10-18T15:22:34.939Z,12.77
2022-10-18T15:25:15.909Z,12.72
2022-10-18T15:27:47.898Z,12.80
2022-10-18T15:30:25.624Z,12.62
2022-10-18T15:32:56.408Z,12.77
2022-10-18T15:35:28.728Z,12.76
2022-10-18T15:37:58.251Z,12.81
2022-10-18T15:40:38.738Z,12.74
2022-10-18T15:43:28.615Z,12.77
2022-10-18T15:46:03.327Z,12.74
2022-10-18T15:48:37.529Z,12.65
2022-10-18T15:51:07.348Z,12.74
2022-10-18T15:53:46.769Z,12.59
2022-10-18T15:56:30.296Z,12.55
2022-10-18T15:59:01.011Z,12.60
2022-10-18T16:01:36.644Z,12.69
2022-10-18T16:04:09.475Z,12.56
2022-10-18T16:06:38.819Z,12.28
2022-10-18T16:09:07.501Z,12.24
2022-10-18T16:11:35.615Z,12.20
2022-10-18T16:14:04.021Z,12.10
2022-10-18T16:16:34.296Z,12.04
2022-10-18T16:19:03.757Z,12.11
2022-10-18T16:21:34.339Z,11.92
2022-10-18T16:24:03.359Z,11.91
2022-10-18T16:26:32.264Z,11.93
2022-10-18T16:29:01.525Z,12.02
2022-10-18T16:31:32.044Z,11.95
2022-10-18T16:34:02.253Z,11.96
2022-10-18T16:36:33.011Z,12.01
2022-10-18T16:39:05.429Z,11.89
2022-10-18T16:41:33.542Z,11.97
2022-10-18T16:44:01.633Z,11.96
2022-10-18T16:46:33.463Z,11.94
2022-10-18T16:49:03.961Z,11.92
2022-10-18T16:51:32.334Z,11.92
2022-10-18T16:54:00.617Z,11.99
2022-10-18T16:56:31.698Z,12.18
2022-10-18T16:59:00.825Z,12.26
2022-10-18T17:01:29.272Z,12.13
2022-10-18T17:03:57.485Z,12.17
2022-10-18T17:06:29.425Z,12.13
2022-10-18T17:08:58.835Z,12.14
2022-10-18T17:11:29.552Z,12.11
2022-10-18T17:13:58.016Z,12.02
2022-10-18T17:18:58.350Z,12.06
2022-10-18T17:21:29.281Z,12.06
2022-10-18T17:24:00.748Z,12.09
2022-10-18T17:26:30.108Z,12.24
2022-10-18T17:29:01.336Z,12.18
2022-10-18T17:31:30.032Z,12.14
2022-10-18T17:34:02.207Z,12.19
2022-10-18T17:36:33.543Z,12.06
2022-10-18T17:39:01.868Z,12.09
2022-10-18T17:41:30.133Z,12.06
2022-10-18T17:43:59.772Z,12.03
2022-10-18T17:46:28.029Z,12.04
2022-10-18T17:48:56.400Z,12.03
2022-10-18T17:51:24.958Z,12.02
2022-10-18T17:53:55.473Z,11.96
2022-10-18T17:56:23.577Z,12.05
2022-10-18T17:58:52.640Z,12.07
2022-10-18T18:01:23.256Z,12.00
2022-10-18T18:03:52.290Z,12.04
2022-10-18T18:06:22.769Z,12.03
2022-10-18T18:08:51.421Z,11.97
2022-10-18T18:11:21.129Z,11.99
2022-10-18T18:13:49.526Z,11.90
2022-10-18T18:16:19.789Z,11.91
2022-10-18T18:18:50.685Z,11.88
2022-10-18T18:21:19.141Z,11.88
2022-10-18T18:23:47.262Z,11.89
2022-10-18T18:26:16.274Z,11.85
2022-10-18T18:28:46.081Z,11.84
2022-10-18T18:31:16.775Z,11.73
2022-10-18T18:33:45.607Z,11.82
2022-10-18T18:36:13.919Z,11.73
2022-10-18T18:38:43.717Z,11.71
2022-10-18T18:41:15.071Z,11.64
2022-10-18T18:43:47.383Z,11.65
2022-10-18T18:46:15.640Z,11.66
2022-10-18T18:48:43.798Z,11.63
2022-10-18T18:51:14.689Z,11.46
2022-10-18T18:53:44.590Z,11.43
2022-10-18T18:56:15.079Z,11.44
2022-10-18T18:58:46.908Z,11.41
2022-10-18T19:01:17.534Z,11.38
2022-10-18T19:03:47.373Z,11.28
2022-10-18T19:06:18.470Z,11.31
2022-10-18T19:08:48.037Z,11.13
2022-10-18T19:11:18.936Z,11.24
2022-10-18T19:13:48.995Z,11.18
2022-10-18T19:16:27.578Z,11.15
2022-10-18T19:18:58.411Z,11.12
2022-10-18T19:21:29.121Z,11.07
2022-10-18T19:23:57.971Z,11.07
2022-10-18T19:26:33.763Z,11.08
2022-10-18T19:29:10.035Z,11.07
2022-10-18T19:31:40.186Z,11.01
2022-10-18T19:34:09.728Z,10.89
2022-10-18T19:36:38.548Z,10.89
2022-10-18T19:39:12.319Z,10.76
2022-10-18T19:41:40.751Z,10.69
2022-10-18T19:44:10.293Z,10.59
2022-10-18T19:46:38.770Z,10.68
2022-10-18T19:49:06.883Z,10.66
2022-10-18T19:51:35.183Z,10.67
2022-10-18T19:54:03.572Z,10.65
2022-10-18T19:56:32.156Z,10.70
2022-10-18T19:59:01.459Z,10.74
2022-10-18T20:01:31.194Z,10.63
2022-10-18T20:03:59.905Z,10.63
2022-10-18T20:06:28.794Z,10.38
2022-10-18T20:08:57.126Z,10.51
2022-10-18T20:11:27.513Z,10.39
2022-10-18T20:13:56.069Z,10.33
2022-10-18T20:16:28.345Z,10.28
2022-10-18T20:18:59.724Z,10.17
2022-10-18T20:21:30.114Z,10.20
2022-10-18T20:23:59.034Z,10.21
2022-10-18T20:26:27.618Z,10.24
2022-10-18T20:28:58.244Z,10.21
2022-10-18T20:31:29.311Z,10.08
2022-10-18T20:34:00.660Z,10.03
2022-10-18T20:36:30.094Z,10.06
2022-10-18T20:38:58.733Z,10.07
2022-10-18T20:41:28.808Z,10.01
2022-10-18T20:43:59.060Z,9.94
2022-10-18T20:46:28.160Z,9.94
2022-10-18T20:48:56.541Z,9.92
2022-10-18T20:51:26.568Z,9.89
2022-10-18T20:53:56.061Z,9.85
2022-10-18T20:56:26.834Z,9.74
2022-10-18T20:58:57.275Z,9.71
2022-10-18T21:01:27.643Z,9.72
2022-10-18T21:03:58.290Z,9.72
2022-10-18T21:06:29.941Z,9.69
2022-10-18T21:08:59.441Z,9.67
2022-10-18T21:11:29.092Z,9.59
2022-10-18T21:14:00.349Z,9.60
2022-10-18T21:16:28.849Z,9.60
2022-10-18T21:18:57.197Z,9.54
2022-10-18T21:21:27.830Z,9.52
2022-10-18T21:23:56.574Z,9.55
2022-10-18T21:26:27.154Z,9.54
2022-10-18T21:28:58.005Z,9.50
2022-10-18T21:31:27.798Z,9.52
2022-10-18T21:33:57.445Z,9.49
2022-10-18T21:36:28.846Z,9.44
2022-10-18T21:38:57.237Z,9.47
2022-10-18T21:41:25.633Z,9.45
2022-10-18T21:43:55.739Z,9.37
2022-10-18T21:46:26.923Z,9.31
2022-10-18T21:48:57.294Z,9.33
2022-10-18T21:51:28.507Z,9.28
2022-10-18T21:53:57.964Z,9.27
2022-10-18T21:56:29.077Z,9.23
2022-10-18T21:58:57.775Z,9.18
2022-10-18T22:01:28.393Z,9.13
2022-10-18T22:03:58.455Z,9.13
2022-10-18T22:06:30.091Z,9.10
2022-10-18T22:09:01.284Z,9.06
2022-10-18T22:11:32.161Z,8.89
2022-10-18T22:14:00.891Z,8.96
2022-10-18T22:16:29.719Z,8.95
2022-10-18T22:18:59.715Z,8.97
2022-10-18T22:21:30.739Z,8.96
2022-10-18T22:23:59.835Z,8.94
2022-10-18T22:26:30.939Z,8.90
2022-10-18T22:29:01.899Z,8.95
2022-10-18T22:31:32.917Z,8.92
2022-10-18T22:34:03.352Z,8.90
2022-10-18T22:36:33.346Z,8.85
2022-10-18T22:39:01.815Z,8.82
2022-10-18T22:41:30.427Z,8.81
2022-10-18T22:44:01.131Z,8.73
2022-10-18T22:46:32.702Z,8.73
2022-10-18T22:49:01.496Z,8.66
2022-10-18T22:51:29.640Z,8.68
2022-10-18T22:53:59.536Z,8.62
2022-10-18T22:56:27.779Z,8.58
2022-10-18T22:58:56.449Z,8.67
2022-10-18T23:01:25.813Z,8.64
2022-10-18T23:03:54.691Z,8.62
2022-10-18T23:06:26.047Z,8.63
2022-10-18T23:08:56.106Z,8.65
2022-10-18T23:11:26.586Z,8.65
2022-10-18T23:13:55.493Z,8.71
2022-10-18T23:16:24.106Z,8.71
2022-10-18T23:18:53.609Z,8.69
2022-10-18T23:21:24.355Z,8.70
2022-10-18T23:23:53.895Z,8.71
2022-10-18T23:26:23.479Z,8.71
2022-10-18T23:28:54.081Z,8.70
2022-10-18T23:31:24.368Z,8.71
2022-10-18T23:33:53.798Z,8.66
2022-10-18T23:36:23.161Z,8.67
2022-10-18T23:38:51.847Z,8.73
2022-10-18T23:41:20.493Z,8.74
2022-10-18T23:43:48.668Z,8.72
2022-10-18T23:46:19.712Z,8.69
2022-10-18T23:48:48.925Z,8.71
2022-10-18T23:51:17.748Z,8.71
2022-10-18T23:53:46.108Z,8.73
2022-10-18T23:56:17.243Z,8.67
2022-10-18T23:58:46.727Z,8.69
